Keaau, Hawaii
Current Conditions -  °F | °C
As of 10:53 PM on Tuesday 27 Jan 2015 (Local Time) from PHTO Reporting Station
Overcast Overcast  
Wind Chill: 69°   Ceiling: 4300
Heat Index: 69°   Visibility: 10mi
Dew Point: 63°   Wind: 7mph
Humidity: 81%   Direction: 240°WSW
Pressure: 29.97"   Gusts: NA
Location:  19.62°N, 155.02°W
Report Text: PHTO 280853Z AUTO 24006KT 10SM OVC043 21/17 A2997 RMK AO2 SLP149 T02060172 50003 TSNO
Loading
Personal Weather Stations






























Interactive Weather Map New forecast layout! Learn more

10-Day Weather Forecast

Advertisements
Track Severe Weather on mobile